Delta Virtual Airport Information Service

Istanbul Airport

ICAO: LTFM Country: Turkey
Latitude: 41.2671 Longitude: 28.7298
Latest Arrival : (-) Latest Departure : (-)


WX CaptureLIVE
Data provided by noaa.gov | Fetched at 09:14:11

METAR : LTFM 041320Z 06019KT 9999 SCT027 25/18 Q1011 NOSIG RMK RWY17L 06017KT RWY34L 05016KT 010V070 RWY16R 05018KT RWY36 06018KT RWY18 06017KT

TAF : LTFM 041040Z 0412/0518 06018KT 9999 SCT027 BECMG 0421/0423 06008KT BECMG 0510/0512 06018KT


Runway Data for LTFM
Data provided by openaviationdata.com

Runway ID Mag Var Hdg Length Elevation Surface ILS Freq ILS Id ILS Slope

Istanbul Airport, Turkey
Use only for reference purposes



Not for navigational purposes.